22分钟前
罗盘
风向 的 风向 250° Texel International Airport 3/21
风: 4 千吨, 2 beaufort
0 500 1.500 3.000 5.000 8.000 10.000
SCT 3.200 ft
OVC 10.000 ft
METAR EHLW 291725Z AUTO 25004KT 9999 SCT032 OVC100 03/02 Q1009 BLU TEMPO SCT018CB BKN025

METAR定义 | 嵌入

24小时趋势

航班类别VFRLIFR
温度8 °C0 °C
风速20 千吨0 千吨
能见度10 公里+0 米

更多历史数据

下载我们的安卓应用程序

从你的主屏幕上轻松地访问你的航空天气。
只需一次付费,您就可以获得无广告的体验。

您会帮助我们保持Metar-Taf.com正常运行吗?
您的贡献有助于网站的进一步开发并支付费用。

没有更多广告

您是捐款5美元还是更多?然后,我们将永远不会再向您展示广告,这是我们永恒的感谢!
捐赠前先登录

METAR Texel International Airport

Texel International Airport是Texel,荷兰中的中型机场。 机场有{a,plural,=1{一条跑道} other{#跑道}}: 3/21 和 12/30

Texel International Airport最近未发布观察结果。相反,我们向您显示63 km的报告Leeuwarden Air Base。 该报告是针对2021年11月29日 18:25, 当地时间进行的。

机场观察

风来自西南西 (250°)方向,速度为4 千吨。

可见度为10 公里 或者更多。

有疏云,零星散落的云朵在3.200 ft的高度 和 乌云密布在10.000 ft的高度。 破损或更高的上限为10.000 ft。

温度为3 °C,阵风为-1 °C。 露点为2 °C,相对湿度为93%。 海平面上的气压为1009 压力 (QNH)。

发展趋势

  • 暂时的

    可变方向的风很小或没有。 疏云,零星散落的云朵 , 积雨云在1.800 ft的高度 和 碎云在2.500 ft的高度.

白天

今天,太阳从08:28升起,在16:29降落。 这适用于Texel International Airport,世界夏令时可能有所不同。 当地时间与世界标准时间之间的时差为+1 小时。 当前,没有夏令时有效。

公司介绍

在这个机场,你可以找到跳伞中心 和 飞行学校。 这个机场上的公司有Vliegles.nl, Paracentrum Texel, Zweefvliegclub Texel 和 Tessel Air。

体会

你可以在这个机场与经验丰富的教练进行双人跳伞。 这些跳伞包括自由落体。 在Texel International Airport进行跳伞的费用是€ 209。 在这里预订Skydive Texel

您是否要在网站上Texel International Airport飞行的天气? 阅读更多   自由!